Flight Track Log - Related Links

Times and Time Zones

All times are in EDT time to prevent confusion due to time zone crossing. See the AWE997 flight status page for this flight to view local times or setup timezone preferences in your user account.

Time Position Orientation Groundspeed Altitude Reporting Facility
EDT Latitude Longitude Course Direction KTS MPH feet Rate Location/Type
Tue 11:02:21 AM 41.9333 -87.9167 90° East 167 192 2,000  Level Chicago TRACON
Tue 11:04:00 AM 41.9541 -87.4114 97° East  Level FlightAware Approximate
Tue 11:04:28 AM 41.8675 -87.7997 127° Southeast 231 266 5,000  Level Chicago Center
Tue 11:05:00 AM 41.9417 -87.2492 95° East  Level FlightAware Approximate
Tue 11:05:30 AM 41.8747 -87.6883 85° East 291 335 7,700  Level Chicago Center
Tue 11:06:00 AM 41.9333 -87.0866 90° East  Level FlightAware Approximate
Tue 11:06:31 AM 41.8897 -87.5428 82° East 325 374 10,600  Level Chicago Center
Tue 11:07:00 AM 41.9333 -86.9234 90° East  Level FlightAware Approximate
Tue 11:07:33 AM 41.9056 -87.4117 81° East 354 407 13,100  Level Chicago Center
Tue 11:08:35 AM 41.9233 -87.2728 80° East 371 427 14,300 1,415 Climbing Chicago Center
Tue 11:09:36 AM 41.9419 -87.1097 81° East 433 498 16,000 1,756 Climbing Chicago Center
Tue 11:10:38 AM 41.9492 -86.9428 87° East 447 514 17,900 1,839 Climbing Chicago Center
Tue 11:11:40 AM 41.9511 -86.7725 89° East 456 525 19,800 1,707 Climbing Chicago Center
Tue 11:12:41 AM 41.9514 -86.5936 90° East 471 542 21,400 1,463 Climbing Chicago Center
Tue 11:13:43 AM 41.9542 -86.4081 89° East 490 564 22,800 1,512 Climbing Chicago Center
Tue 11:14:44 AM 41.9544 -86.1833 90° East 500 575 24,500 1,415 Climbing Chicago Center
Tue 11:15:46 AM 41.9347 -85.9942 98° East 510 587 25,700 1,415 Climbing Chicago Center
Tue 11:16:47 AM 41.9167 -85.8011 97° East 517 595 27,400 1,659 Climbing Chicago Center
Tue 11:17:49 AM 41.8994 -85.6117 97° East 511 588 29,100 1,597 Climbing Chicago Center
Tue 11:18:51 AM 41.8814 -85.4233 97° East 503 579 30,700 927 Climbing Chicago Center
Tue 11:19:52 AM 41.8625 -85.2344 98° East 503 579 31,000 188 Climbing Chicago Center
Tue 11:20:27 AM 41.8517 -85.1108 97° East 496 571 31,000  Level Cleveland Center
Tue 11:21:27 AM 41.8317 -84.9283 98° East 496 571 31,000  Level Cleveland Center
Tue 11:22:27 AM 41.8114 -84.7431 98° East 496 571 31,000  Level Cleveland Center
Tue 11:23:27 AM 41.7889 -84.5575 99° East 502 578 31,000  Level Cleveland Center
Tue 11:24:27 AM 41.7531 -84.3800 105° East 502 578 31,000  Level Cleveland Center
Tue 11:25:27 AM 41.7167 -84.2219 107° East 497 572 31,000 -50 Level Cleveland Center
Tue 11:26:27 AM 41.6825 -84.0478 105° East 497 572 30,900  Descending Cleveland Center
Tue 11:27:27 AM 41.6458 -83.8761 106° East 485 558 31,000 50 Climbing Cleveland Center
Tue 11:28:27 AM 41.6111 -83.6994 105° East 485 558 31,000  Level Cleveland Center
Tue 11:29:27 AM 41.5739 -83.5256 106° East 485 558 31,000  Level Cleveland Center
Tue 11:30:27 AM 41.5367 -83.3544 106° East 485 558 31,000  Level Cleveland Center
Tue 11:31:27 AM 41.4992 -83.1756 106° East 494 568 31,000  Level Cleveland Center
Tue 11:32:27 AM 41.4633 -83.0022 105° East 494 568 31,000  Level Cleveland Center
Tue 11:33:27 AM 41.4214 -82.8094 106° East 494 568 31,000  Level Cleveland Center
Tue 11:34:27 AM 41.3828 -82.6339 106° East 489 563 31,000  Level Cleveland Center
Tue 11:35:27 AM 41.3442 -82.4611 107° East 489 563 31,000  Level Cleveland Center
Tue 11:36:27 AM 41.3053 -82.2831 106° East 489 563 31,000  Level Cleveland Center
Tue 11:37:27 AM 41.2681 -82.1108 106° East 484 557 31,000  Level Cleveland Center
Tue 11:38:27 AM 41.2367 -81.9500 104° East 489 563 31,000  Level Cleveland Center
Tue 11:40:27 AM 41.1592 -81.6092 107° East 483 556 31,000  Level Cleveland Center
Tue 11:41:27 AM 41.1106 -81.4208 109° East 483 556 31,000  Level Cleveland Center
Tue 11:42:27 AM 41.0700 -81.2497 107° East 483 556 31,000  Level Cleveland Center
Tue 11:43:27 AM 41.0311 -81.0814 107° East 483 556 31,000  Level Cleveland Center
Tue 11:44:27 AM 40.9983 -80.9269 106° East 483 556 31,000  Level Cleveland Center
Tue 11:45:27 AM 40.9572 -80.7564 108° East 483 556 31,000  Level Cleveland Center
Tue 11:46:27 AM 40.9178 -80.5886 107° East 483 556 31,000  Level Cleveland Center
Tue 11:47:27 AM 40.8781 -80.4183 107° East 483 556 31,000  Level Cleveland Center
Tue 11:48:27 AM 40.8297 -80.2400 110° East 477 549 31,000  Level Cleveland Center
Tue 11:49:27 AM 40.7747 -80.0758 114° Southeast 477 549 31,000  Level Cleveland Center
Tue 11:50:27 AM 40.7197 -79.9147 114° Southeast 477 549 31,000  Level Cleveland Center
Tue 11:51:27 AM 40.6625 -79.7592 116° Southeast 477 549 31,000  Level Cleveland Center
Tue 11:52:27 AM 40.6050 -79.6014 116° Southeast 477 549 31,000  Level Cleveland Center
Tue 11:53:27 AM 40.5617 -79.4353 109° East 477 549 31,000  Level Cleveland Center
Tue 11:54:27 AM 40.5308 -79.2664 103° East 477 549 31,000  Level Cleveland Center
Tue 11:55:27 AM 40.5056 -79.0947 101° East 472 543 31,000  Level Cleveland Center
Tue 11:56:27 AM 40.4786 -78.9400 103° East 472 543 31,000 -250 Level Cleveland Center
Tue 11:57:27 AM 40.4508 -78.7686 102° East 472 543 30,500 -750 Descending Cleveland Center
Tue 11:58:27 AM 40.4211 -78.6031 103° East 472 543 29,500 -1,000 Descending Cleveland Center
Tue 11:59:27 AM 40.3928 -78.4294 102° East 472 543 28,500 -1,050 Descending Cleveland Center
Tue 11:59:47 AM 40.3806 -78.3572 103° East 469 540 28,100 -963 Descending New York Center
Tue 12:00:48 PM 40.3497 -78.1850 103° East 488 562 27,200 -1,008 Descending New York Center
Tue 12:01:46 PM 40.3206 -78.0183 103° East 481 554 26,100 -1,373 Descending New York Center
Tue 12:02:46 PM 40.3094 -77.8567 95° East 464 534 24,500 -1,884 Descending New York Center
Tue 12:03:47 PM 40.3083 -77.6986 90° East 451 519 22,300 -2,016 Descending New York Center
Tue 12:04:48 PM 40.3089 -77.5433 90° East 432 497 20,400 -2,083 Descending New York Center
Tue 12:05:48 PM 40.3069 -77.3961 91° East 424 488 18,100 -1,700 Descending New York Center
Tue 12:06:48 PM 40.3044 -77.2542 91° East 403 464 17,000 -559 Descending New York Center
Tue 12:07:46 PM 40.3019 -77.1069 91° East 393 452 17,000  Level New York Center
Tue 12:08:48 PM 40.2800 -76.9717 102° East 386 444 17,000  Level New York Center
Tue 12:09:46 PM 40.2478 -76.8300 107° East 393 452 17,000 -504 Level New York Center
Tue 12:10:47 PM 40.2203 -76.7108 107° East 388 447 16,000 -1,426 Descending New York Center
Tue 12:11:48 PM 40.1894 -76.5803 107° East 383 441 14,100 -2,033 Descending New York Center
Tue 12:12:48 PM 40.1564 -76.4417 107° East 371 427 11,900 -1,622 Descending New York Center
Tue 12:13:39 PM 40.1297 -76.3311 107° East 356 410 11,100 -706 Descending FAA TRACON SMA TRACON (SMA)
Tue 12:13:56 PM 40.1233 -76.3028 106° East 355 409 11,100 -162 Level FAA TRACON SMA TRACON (SMA)
Tue 12:14:16 PM 40.1172 -76.2533 99° East 357 411 11,000 -450 Descending FAA TRACON SMA TRACON (SMA)
Tue 12:14:36 PM 40.1158 -76.2161 93° East 360 414 10,800 -750 Descending FAA TRACON SMA TRACON (SMA)
Tue 12:14:56 PM 40.1117 -76.1742 97° East 355 409 10,500 -750 Descending FAA TRACON SMA TRACON (SMA)
Tue 12:15:16 PM 40.1097 -76.1236 93° East 354 407 10,300 -600 Descending FAA TRACON SMA TRACON (SMA)
Tue 12:15:36 PM 40.1058 -76.0861 98° East 349 402 10,100 -600 Descending FAA TRACON SMA TRACON (SMA)
Tue 12:15:56 PM 40.1039 -76.0500 94° East 342 394 9,900 -600 Descending FAA TRACON SMA TRACON (SMA)
Tue 12:16:16 PM 40.0997 -76.0061 97° East 317 365 9,700 -750 Descending FAA TRACON SMA TRACON (SMA)
Tue 12:16:36 PM 40.0975 -75.9719 95° East 307 353 9,400 -1,350 Descending FAA TRACON SMA TRACON (SMA)
Tue 12:16:56 PM 40.0958 -75.9386 94° East 309 356 8,800 -1,500 Descending FAA TRACON SMA TRACON (SMA)
Tue 12:17:16 PM 40.0931 -75.9025 96° East 310 357 8,400 -1,500 Descending FAA TRACON SMA TRACON (SMA)
Tue 12:17:36 PM 40.0769 -75.8672 121° Southeast 299 344 7,800 -1,500 Descending FAA TRACON SMA TRACON (SMA)
Tue 12:17:56 PM 40.0564 -75.8514 149° Southeast 281 323 7,400 -1,350 Descending FAA TRACON SMA TRACON (SMA)
Tue 12:18:16 PM 40.0325 -75.8339 151° Southeast 274 315 6,900 -1,350 Descending FAA TRACON SMA TRACON (SMA)
Tue 12:18:36 PM 40.0108 -75.8189 152° Southeast 276 318 6,500 -1,050 Descending FAA TRACON SMA TRACON (SMA)
Tue 12:18:56 PM 39.9900 -75.8022 148° Southeast 269 310 6,200 -600 Descending FAA TRACON SMA TRACON (SMA)
Tue 12:19:16 PM 39.9706 -75.7914 157° South 262 302 6,100 -150 Descending FAA TRACON SMA TRACON (SMA)
Tue 12:19:36 PM 39.9461 -75.7750 153° Southeast 258 297 6,100 -150 Level FAA TRACON SMA TRACON (SMA)
Tue 12:19:56 PM 39.9281 -75.7631 153° Southeast 259 298 6,000  Descending FAA TRACON SMA TRACON (SMA)
Tue 12:20:16 PM 39.9019 -75.7464 154° Southeast 259 298 6,100  Climbing FAA TRACON SMA TRACON (SMA)
Tue 12:20:36 PM 39.8819 -75.7297 147° Southeast 271 312 6,000 -750 Descending FAA TRACON SMA TRACON (SMA)
Tue 12:20:56 PM 39.8658 -75.7119 140° Southeast 262 302 5,600 -1,500 Descending FAA TRACON SMA TRACON (SMA)
Tue 12:21:16 PM 39.8506 -75.6878 129° Southeast 276 318 5,000 -1,950 Descending FAA TRACON SMA TRACON (SMA)
Tue 12:21:36 PM 39.8436 -75.6514 104° East 271 312 4,300 -1,500 Descending FAA TRACON SMA TRACON (SMA)
Tue 12:21:56 PM 39.8386 -75.6247 104° East 269 310 4,000 -900 Descending FAA TRACON SMA TRACON (SMA)
Tue 12:22:16 PM 39.8325 -75.5881 102° East 257 296 3,700 -750 Descending FAA TRACON SMA TRACON (SMA)
Tue 12:22:36 PM 39.8281 -75.5622 103° East 243 280 3,500 -750 Descending FAA TRACON SMA TRACON (SMA)
Tue 12:22:56 PM 39.8239 -75.5411 104° East 233 268 3,200 -600 Descending FAA TRACON SMA TRACON (SMA)
Tue 12:23:16 PM 39.8200 -75.5122 100° East 232 267 3,100 -150 Descending FAA TRACON SMA TRACON (SMA)
Tue 12:23:36 PM 39.8200 -75.4808 90° East 228 262 3,100 -150 Level FAA TRACON SMA TRACON (SMA)
Tue 12:23:56 PM 39.8244 -75.4581 76° East 222 255 3,000 -750 Descending FAA TRACON SMA TRACON (SMA)
Tue 12:24:16 PM 39.8289 -75.4344 76° East 212 244 2,600 -1,200 Descending FAA TRACON SMA TRACON (SMA)

Login

Don't have an account? Register now (free) for customized features, flight alerts, and more!